Nearby METAR Reports

 

KSJC - San Jose, California, USA
Distance from station: NE 9mi, 14km
Updated: Thu, 26-May-2022 6:53pm PDT
Mostly cloudy
Mostly cloudy
 Wind from NW
Wind: NW 9 mph , 15 km/h
Temperature: 70°F , 21°C
Dew Point: 54°F , 12°C
Humidity: 57%
Barometer: 29.90 inHg , 1012.5 hPa
Clouds: Mostly cloudy
Visibility: 10 miles , 16 km
Cloud details: Few Clouds 8000 ft
Partly cloudy 12000 ft
Mostly cloudy 16000 ft
2022/05/27 01:53 KSJC 270153Z 32008KT 10SM FEW080 SCT120 BKN160 21/12 A2990 RMK AO2 SLP126 T02060117
KNUQ - Moffett Nas/Mtn, California, USA
Distance from station: N 9mi, 14km
Updated: Thu, 26-May-2022 7:15pm PDT
Clear
Clear
 Wind from N
Wind: N 13 mph , 20 km/h, Gust: 20 mph , 31 km/h
Temperature: 64°F , 18°C
Dew Point: 54°F , 12°C
Humidity: 68%
Barometer: 29.91 inHg , 1012.9 hPa
Clouds: Clear
Visibility: 10 miles , 16 km
2022/05/27 02:15 KNUQ 270215Z AUTO 35011G17KT 10SM CLR 18/12 A2991 RMK AO2
 
KPAO - Palo Alto, California, USA
Distance from station: NNW 14mi, 23km
Updated: Thu, 26-May-2022 4:47pm PDT
NOT Current
Mostly cloudy
Mostly cloudy
 Wind from NNW
Wind: NNW 16 mph , 26 km/h
Temperature: 66°F , 19°C
Dew Point: 55°F , 13°C
Humidity: 68%
Barometer: 29.90 inHg , 1012.5 hPa
Clouds: Mostly cloudy
Visibility: 10 miles , 16 km
Cloud details: Few Clouds 3000 ft
Mostly cloudy 20000 ft
2022/05/26 23:47 KPAO 262347Z 34014KT 10SM FEW030 BKN200 19/13 A2990
KRHV - San Jose/Reid, California, USA
Distance from station: ENE 12mi, 19km
Updated: Thu, 26-May-2022 6:47pm PDT
Mostly cloudy
Mostly cloudy
 Wind from W
Wind: W 6 mph , 9 km/h
Temperature: 70°F , 21°C
Dew Point: 54°F , 12°C
Humidity: 57%
Barometer: 29.91 inHg , 1012.9 hPa
Clouds: Mostly cloudy
Visibility: 10 miles , 16 km
Cloud details: Mostly cloudy 10000 ft
2022/05/27 01:47 KRHV 270147Z 28005KT 10SM BKN100 21/12 A2991
 
KOAK - Oakland, California, USA
Distance from station: NNW 31mi, 50km
Updated: Thu, 26-May-2022 6:53pm PDT
Mostly cloudy
Mostly cloudy
 Wind from WNW
Wind: WNW 14 mph , 22 km/h
Temperature: 63°F , 17°C
Dew Point: 52°F , 11°C
Humidity: 68%
Barometer: 29.92 inHg , 1013.2 hPa
Clouds: Mostly cloudy
Visibility: 10 miles , 16 km
Cloud details: Few Clouds 1500 ft
Mostly cloudy 15000 ft
Mostly cloudy 22000 ft
2022/05/27 01:53 KOAK 270153Z 29012KT 10SM FEW015 BKN150 BKN220 17/11 A2992 RMK AO2 SLP132 T01670111
KSQL - San Carlos Airpo, California, USA
Distance from station: NW 21mi, 34km
Updated: Thu, 26-May-2022 7:14pm PDT
Mostly cloudy
Mostly cloudy
 Wind from W
Wind: W 15 mph , 24 km/h, Gust: 23 mph , 37 km/h
Temperature: 64°F , 18°C
Dew Point: 52°F , 11°C
Humidity: 64%
Barometer: 29.92 inHg , 1013.2 hPa
Clouds: Mostly cloudy
Visibility: 10 miles , 16 km
Cloud details: Few Clouds 1500 ft
Mostly cloudy 18000 ft
2022/05/27 02:14 KSQL 270214Z 26013G20KT 10SM FEW015 BKN180 18/11 A2992
 
KSFO - San Francisco, California, USA
Distance from station: NW 30mi, 49km
Updated: Thu, 26-May-2022 6:56pm PDT
Mostly cloudy
Mostly cloudy
 Wind from W
Wind: W 7 mph , 11 km/h
Temperature: 64°F , 18°C
Dew Point: 52°F , 11°C
Humidity: 64%
Barometer: 29.92 inHg , 1013.2 hPa
Clouds: Mostly cloudy
Visibility: 10 miles , 16 km
Cloud details: Few Clouds 1500 ft
Mostly cloudy 18000 ft
2022/05/27 01:56 KSFO 270156Z 28006KT 10SM FEW015 BKN180 18/11 A2992 RMK AO2 SLP130 T01780106
KE16 - San Martin, California, USA
Distance from station: ESE 27mi, 43km
Updated: Thu, 26-May-2022 7:15pm PDT
Clear
Clear
 Wind from SSE
Wind: SSE 10 mph , 17 km/h
Temperature: 63°F , 17°C
Dew Point: 50°F , 10°C
Humidity: 64%
Barometer: 29.95 inHg , 1014.2 hPa
Clouds: Clear
Visibility: 10 miles , 16 km
2022/05/27 02:15 KE16 270215Z AUTO 16009KT 10SM CLR 17/10 A2995 RMK AO2
 
KWVI - Watsonville, California, USA
Distance from station: SSE 27mi, 44km
Updated: Thu, 26-May-2022 6:53pm PDT
Overcast
Overcast
 Wind from W
Wind: W 10 mph , 17 km/h
Temperature: 57°F , 14°C
Dew Point: 52°F , 11°C
Humidity: 82%
Barometer: 29.97 inHg , 1014.9 hPa
Clouds: Overcast
Visibility: 10 miles , 16 km
Cloud details: Overcast 1200 ft
2022/05/27 01:53 KWVI 270153Z AUTO 27009KT 10SM OVC012 14/11 A2997 RMK AO2 SLP149 T01390111
KHAF - Half Moon Bay, California, USA
Distance from station: WNW 31mi, 50km
Updated: Thu, 26-May-2022 7:15pm PDT
Overcast
Overcast
 Wind from S
Wind: S 10 mph , 17 km/h
Temperature: 55°F , 13°C
Dew Point: 55°F , 13°C
Humidity: 100%
Barometer: 29.96 inHg , 1014.6 hPa
Clouds: Overcast
Visibility: 10 miles , 16 km
Cloud details: Overcast 1200 ft
2022/05/27 02:15 KHAF 270215Z AUTO 19009KT 10SM OVC012 13/13 A2996 RMK AO2
 
KHWD - Hayward, California, USA
Distance from station: N 28mi, 44km
Updated: Thu, 26-May-2022 6:54pm PDT
Clear
Clear
 Wind from NNW
Wind: NNW 13 mph , 20 km/h
Temperature: 63°F , 17°C
Dew Point: 52°F , 11°C
Humidity: 68%
Barometer: 29.92 inHg , 1013.2 hPa
Clouds: Clear
Visibility: 10 miles , 16 km
2022/05/27 01:54 KHWD 270154Z 34011KT 10SM CLR 17/11 A2992 RMK AO2 SLP141 T01670111
KLVK - Livermore, California, USA
Distance from station: NNE 31mi, 51km
Updated: Thu, 26-May-2022 6:53pm PDT
Clear
Clear
 Wind from WNW
Wind: WNW 17 mph , 28 km/h
Temperature: 64°F , 18°C
Dew Point: 52°F , 11°C
Humidity: 64%
Barometer: 29.89 inHg , 1012.2 hPa
Clouds: Clear
Visibility: 10 miles , 16 km
2022/05/27 01:53 KLVK 270153Z 29015KT 10SM CLR 18/11 A2989 RMK AO2 SLP117 T01830111